sensor_id;sensor_type;location;lat;lon;timestamp;P1;durP1;ratioP1;P2;durP2;ratioP2
66603;SDS011;53460;39.612;8.822;2023-05-19T00:01:25;4.63;;;3.45;;
66603;SDS011;53460;39.612;8.822;2023-05-19T00:03:53;5.82;;;3.42;;
66603;SDS011;53460;39.612;8.822;2023-05-19T00:06:22;5.85;;;3.55;;
66603;SDS011;53460;39.612;8.822;2023-05-19T00:09:09;5.82;;;3.22;;
66603;SDS011;53460;39.612;8.822;2023-05-19T00:11:37;4.18;;;3.50;;
66603;SDS011;53460;39.612;8.822;2023-05-19T00:14:03;5.35;;;3.50;;
66603;SDS011;53460;39.612;8.822;2023-05-19T00:16:29;5.55;;;4.03;;
66603;SDS011;53460;39.612;8.822;2023-05-19T00:18:58;5.35;;;3.25;;
66603;SDS011;53460;39.612;8.822;2023-05-19T00:21:27;6.03;;;3.63;;
66603;SDS011;53460;39.612;8.822;2023-05-19T00:23:53;7.07;;;3.50;;
66603;SDS011;53460;39.612;8.822;2023-05-19T00:26:18;7.18;;;3.10;;
66603;SDS011;53460;39.612;8.822;2023-05-19T00:28:53;5.32;;;3.05;;
66603;SDS011;53460;39.612;8.822;2023-05-19T00:31:18;4.47;;;3.30;;
66603;SDS011;53460;39.612;8.822;2023-05-19T00:33:44;5.00;;;3.38;;
66603;SDS011;53460;39.612;8.822;2023-05-19T00:36:10;6.60;;;3.20;;
66603;SDS011;53460;39.612;8.822;2023-05-19T00:38:36;5.78;;;3.70;;
66603;SDS011;53460;39.612;8.822;2023-05-19T00:41:04;4.50;;;3.38;;
66603;SDS011;53460;39.612;8.822;2023-05-19T00:43:30;4.60;;;3.70;;
66603;SDS011;53460;39.612;8.822;2023-05-19T00:45:56;7.28;;;4.10;;
66603;SDS011;53460;39.612;8.822;2023-05-19T00:48:22;6.20;;;4.10;;
66603;SDS011;53460;39.612;8.822;2023-05-19T00:50:48;6.50;;;3.55;;
66603;SDS011;53460;39.612;8.822;2023-05-19T00:53:14;6.88;;;3.35;;
66603;SDS011;53460;39.612;8.822;2023-05-19T00:55:41;6.75;;;3.60;;
66603;SDS011;53460;39.612;8.822;2023-05-19T00:58:07;7.47;;;4.03;;
66603;SDS011;53460;39.612;8.822;2023-05-19T01:00:33;5.75;;;3.47;;
66603;SDS011;53460;39.612;8.822;2023-05-19T01:03:01;8.02;;;4.13;;
66603;SDS011;53460;39.612;8.822;2023-05-19T01:05:27;4.63;;;3.28;;
66603;SDS011;53460;39.612;8.822;2023-05-19T01:07:52;6.07;;;3.35;;
66603;SDS011;53460;39.612;8.822;2023-05-19T01:10:21;6.38;;;3.53;;
66603;SDS011;53460;39.612;8.822;2023-05-19T01:12:47;6.50;;;4.00;;
66603;SDS011;53460;39.612;8.822;2023-05-19T01:15:13;5.25;;;4.15;;
66603;SDS011;53460;39.612;8.822;2023-05-19T01:17:40;5.72;;;3.80;;
66603;SDS011;53460;39.612;8.822;2023-05-19T01:20:32;7.93;;;4.35;;
66603;SDS011;53460;39.612;8.822;2023-05-19T01:30:45;5.07;;;3.83;;
66603;SDS011;53460;39.612;8.822;2023-05-19T01:33:13;7.25;;;3.88;;
66603;SDS011;53460;39.612;8.822;2023-05-19T01:35:38;7.07;;;4.10;;
66603;SDS011;53460;39.612;8.822;2023-05-19T01:38:07;7.60;;;4.00;;
66603;SDS011;53460;39.612;8.822;2023-05-19T01:40:33;9.13;;;4.00;;
66603;SDS011;53460;39.612;8.822;2023-05-19T01:43:00;3.10;;;2.83;;
66603;SDS011;53460;39.612;8.822;2023-05-19T01:45:30;5.00;;;3.17;;
66603;SDS011;53460;39.612;8.822;2023-05-19T01:50:24;6.35;;;3.08;;
66603;SDS011;53460;39.612;8.822;2023-05-19T01:52:50;5.93;;;3.10;;
66603;SDS011;53460;39.612;8.822;2023-05-19T01:55:15;4.13;;;3.13;;
66603;SDS011;53460;39.612;8.822;2023-05-19T01:57:50;6.68;;;3.83;;
66603;SDS011;53460;39.612;8.822;2023-05-19T02:00:28;5.85;;;3.20;;
66603;SDS011;53460;39.612;8.822;2023-05-19T02:08:12;4.40;;;3.05;;
66603;SDS011;53460;39.612;8.822;2023-05-19T02:10:39;9.77;;;3.85;;
66603;SDS011;53460;39.612;8.822;2023-05-19T02:13:06;9.77;;;3.90;;
66603;SDS011;53460;39.612;8.822;2023-05-19T02:15:35;6.43;;;3.35;;
66603;SDS011;53460;39.612;8.822;2023-05-19T02:18:02;7.88;;;3.53;;
66603;SDS011;53460;39.612;8.822;2023-05-19T02:20:31;5.50;;;3.08;;
66603;SDS011;53460;39.612;8.822;2023-05-19T02:22:57;8.35;;;3.83;;
66603;SDS011;53460;39.612;8.822;2023-05-19T02:25:22;4.68;;;3.25;;
66603;SDS011;53460;39.612;8.822;2023-05-19T02:27:49;5.15;;;3.45;;
66603;SDS011;53460;39.612;8.822;2023-05-19T02:30:14;5.10;;;3.80;;
66603;SDS011;53460;39.612;8.822;2023-05-19T02:32:40;6.53;;;3.53;;
66603;SDS011;53460;39.612;8.822;2023-05-19T02:35:05;6.47;;;3.70;;
66603;SDS011;53460;39.612;8.822;2023-05-19T02:37:31;7.13;;;3.80;;
66603;SDS011;53460;39.612;8.822;2023-05-19T02:39:56;6.35;;;3.58;;
66603;SDS011;53460;39.612;8.822;2023-05-19T02:42:22;6.18;;;3.63;;
66603;SDS011;53460;39.612;8.822;2023-05-19T02:44:47;6.53;;;3.85;;
66603;SDS011;53460;39.612;8.822;2023-05-19T02:47:13;6.80;;;3.95;;
66603;SDS011;53460;39.612;8.822;2023-05-19T02:49:39;5.25;;;3.65;;
66603;SDS011;53460;39.612;8.822;2023-05-19T02:52:04;6.05;;;3.58;;
66603;SDS011;53460;39.612;8.822;2023-05-19T02:54:30;8.38;;;4.43;;
66603;SDS011;53460;39.612;8.822;2023-05-19T02:56:56;5.05;;;3.80;;
66603;SDS011;53460;39.612;8.822;2023-05-19T02:59:24;6.43;;;3.90;;
66603;SDS011;53460;39.612;8.822;2023-05-19T03:01:51;8.43;;;4.03;;
66603;SDS011;53460;39.612;8.822;2023-05-19T03:04:17;3.97;;;3.55;;
66603;SDS011;53460;39.612;8.822;2023-05-19T03:06:45;5.10;;;3.35;;
66603;SDS011;53460;39.612;8.822;2023-05-19T03:09:11;9.57;;;3.53;;
66603;SDS011;53460;39.612;8.822;2023-05-19T03:11:37;4.18;;;3.58;;
66603;SDS011;53460;39.612;8.822;2023-05-19T03:14:02;7.25;;;3.85;;
66603;SDS011;53460;39.612;8.822;2023-05-19T03:16:28;5.40;;;3.53;;
66603;SDS011;53460;39.612;8.822;2023-05-19T03:18:53;7.03;;;4.38;;
66603;SDS011;53460;39.612;8.822;2023-05-19T03:21:19;8.88;;;4.68;;
66603;SDS011;53460;39.612;8.822;2023-05-19T03:23:45;5.65;;;4.32;;
66603;SDS011;53460;39.612;8.822;2023-05-19T03:26:11;7.75;;;5.13;;
66603;SDS011;53460;39.612;8.822;2023-05-19T03:28:37;6.15;;;4.20;;
66603;SDS011;53460;39.612;8.822;2023-05-19T03:31:02;8.85;;;5.72;;
66603;SDS011;53460;39.612;8.822;2023-05-19T03:33:33;11.32;;;6.55;;
66603;SDS011;53460;39.612;8.822;2023-05-19T03:35:58;11.50;;;6.18;;
66603;SDS011;53460;39.612;8.822;2023-05-19T03:38:26;10.80;;;6.80;;
66603;SDS011;53460;39.612;8.822;2023-05-19T03:40:56;19.73;;;10.40;;
66603;SDS011;53460;39.612;8.822;2023-05-19T03:43:21;22.27;;;8.88;;
66603;SDS011;53460;39.612;8.822;2023-05-19T03:45:53;18.40;;;7.88;;
66603;SDS011;53460;39.612;8.822;2023-05-19T03:48:44;11.10;;;6.53;;
66603;SDS011;53460;39.612;8.822;2023-05-19T03:51:31;11.50;;;5.88;;
66603;SDS011;53460;39.612;8.822;2023-05-19T03:54:14;7.88;;;5.25;;
66603;SDS011;53460;39.612;8.822;2023-05-19T03:56:41;9.60;;;4.45;;
66603;SDS011;53460;39.612;8.822;2023-05-19T03:59:07;10.95;;;5.28;;
66603;SDS011;53460;39.612;8.822;2023-05-19T04:01:34;8.45;;;4.25;;
66603;SDS011;53460;39.612;8.822;2023-05-19T04:04:03;6.00;;;3.22;;
66603;SDS011;53460;39.612;8.822;2023-05-19T04:06:29;6.72;;;3.58;;
66603;SDS011;53460;39.612;8.822;2023-05-19T04:08:55;10.70;;;4.15;;
66603;SDS011;53460;39.612;8.822;2023-05-19T04:11:20;11.07;;;4.28;;
66603;SDS011;53460;39.612;8.822;2023-05-19T04:13:46;5.07;;;3.85;;
66603;SDS011;53460;39.612;8.822;2023-05-19T04:16:11;8.55;;;3.67;;
66603;SDS011;53460;39.612;8.822;2023-05-19T04:18:37;7.10;;;3.47;;
66603;SDS011;53460;39.612;8.822;2023-05-19T04:21:02;5.57;;;3.28;;
66603;SDS011;53460;39.612;8.822;2023-05-19T04:23:28;5.28;;;2.90;;
66603;SDS011;53460;39.612;8.822;2023-05-19T04:25:54;5.40;;;2.60;;
66603;SDS011;53460;39.612;8.822;2023-05-19T04:28:21;5.18;;;2.83;;
66603;SDS011;53460;39.612;8.822;2023-05-19T04:30:48;6.50;;;2.78;;
66603;SDS011;53460;39.612;8.822;2023-05-19T04:33:15;5.18;;;3.00;;
66603;SDS011;53460;39.612;8.822;2023-05-19T04:35:41;4.70;;;2.90;;
66603;SDS011;53460;39.612;8.822;2023-05-19T04:38:09;10.15;;;3.22;;
66603;SDS011;53460;39.612;8.822;2023-05-19T04:40:36;5.93;;;3.17;;
66603;SDS011;53460;39.612;8.822;2023-05-19T04:43:04;5.18;;;2.80;;
66603;SDS011;53460;39.612;8.822;2023-05-19T04:45:31;4.32;;;2.75;;
66603;SDS011;53460;39.612;8.822;2023-05-19T04:47:59;6.68;;;2.67;;
66603;SDS011;53460;39.612;8.822;2023-05-19T04:50:24;6.80;;;2.80;;
66603;SDS011;53460;39.612;8.822;2023-05-19T04:52:54;5.85;;;2.38;;
66603;SDS011;53460;39.612;8.822;2023-05-19T04:55:20;4.85;;;2.13;;
66603;SDS011;53460;39.612;8.822;2023-05-19T04:57:47;4.20;;;2.53;;
66603;SDS011;53460;39.612;8.822;2023-05-19T05:00:12;3.30;;;2.30;;
66603;SDS011;53460;39.612;8.822;2023-05-19T05:02:55;3.22;;;2.30;;
66603;SDS011;53460;39.612;8.822;2023-05-19T05:05:22;4.30;;;2.10;;
66603;SDS011;53460;39.612;8.822;2023-05-19T05:07:47;5.82;;;2.55;;
66603;SDS011;53460;39.612;8.822;2023-05-19T05:10:14;9.48;;;2.20;;
66603;SDS011;53460;39.612;8.822;2023-05-19T05:12:40;6.15;;;2.25;;
66603;SDS011;53460;39.612;8.822;2023-05-19T05:15:05;3.00;;;1.88;;
66603;SDS011;53460;39.612;8.822;2023-05-19T05:17:32;4.85;;;1.75;;
66603;SDS011;53460;39.612;8.822;2023-05-19T05:19:57;4.25;;;1.70;;
66603;SDS011;53460;39.612;8.822;2023-05-19T05:22:24;4.68;;;1.80;;
66603;SDS011;53460;39.612;8.822;2023-05-19T05:24:49;2.65;;;1.75;;
66603;SDS011;53460;39.612;8.822;2023-05-19T05:27:15;4.50;;;1.70;;
66603;SDS011;53460;39.612;8.822;2023-05-19T05:29:40;4.82;;;1.88;;
66603;SDS011;53460;39.612;8.822;2023-05-19T05:32:07;5.82;;;2.10;;
66603;SDS011;53460;39.612;8.822;2023-05-19T05:34:33;4.05;;;1.50;;
66603;SDS011;53460;39.612;8.822;2023-05-19T05:37:00;2.78;;;1.40;;
66603;SDS011;53460;39.612;8.822;2023-05-19T05:39:25;3.45;;;1.60;;
66603;SDS011;53460;39.612;8.822;2023-05-19T05:41:52;2.90;;;1.60;;
66603;SDS011;53460;39.612;8.822;2023-05-19T05:44:18;3.92;;;1.35;;
66603;SDS011;53460;39.612;8.822;2023-05-19T05:46:44;6.07;;;1.55;;
66603;SDS011;53460;39.612;8.822;2023-05-19T05:49:09;3.72;;;1.73;;
66603;SDS011;53460;39.612;8.822;2023-05-19T05:51:38;2.45;;;1.63;;
66603;SDS011;53460;39.612;8.822;2023-05-19T05:54:05;3.03;;;1.50;;
66603;SDS011;53460;39.612;8.822;2023-05-19T05:56:35;2.30;;;1.35;;
66603;SDS011;53460;39.612;8.822;2023-05-19T05:59:03;2.28;;;1.48;;
66603;SDS011;53460;39.612;8.822;2023-05-19T06:01:30;2.45;;;1.20;;
66603;SDS011;53460;39.612;8.822;2023-05-19T06:03:55;2.92;;;1.20;;
66603;SDS011;53460;39.612;8.822;2023-05-19T06:06:22;1.33;;;1.17;;
66603;SDS011;53460;39.612;8.822;2023-05-19T06:08:49;5.20;;;1.35;;
66603;SDS011;53460;39.612;8.822;2023-05-19T06:11:16;1.70;;;1.05;;
66603;SDS011;53460;39.612;8.822;2023-05-19T06:13:41;5.55;;;1.45;;
66603;SDS011;53460;39.612;8.822;2023-05-19T06:16:10;4.10;;;1.42;;
66603;SDS011;53460;39.612;8.822;2023-05-19T06:18:39;3.75;;;1.20;;
66603;SDS011;53460;39.612;8.822;2023-05-19T06:21:05;2.00;;;1.30;;
66603;SDS011;53460;39.612;8.822;2023-05-19T06:23:31;2.17;;;1.30;;
66603;SDS011;53460;39.612;8.822;2023-05-19T06:25:56;2.53;;;1.00;;
66603;SDS011;53460;39.612;8.822;2023-05-19T06:28:22;3.15;;;1.02;;
66603;SDS011;53460;39.612;8.822;2023-05-19T06:30:49;2.13;;;1.30;;
66603;SDS011;53460;39.612;8.822;2023-05-19T06:33:21;4.00;;;1.37;;
66603;SDS011;53460;39.612;8.822;2023-05-19T06:35:47;3.25;;;1.10;;
66603;SDS011;53460;39.612;8.822;2023-05-19T06:38:13;1.75;;;0.93;;
66603;SDS011;53460;39.612;8.822;2023-05-19T06:40:39;1.80;;;1.30;;
66603;SDS011;53460;39.612;8.822;2023-05-19T06:43:05;1.67;;;1.02;;
66603;SDS011;53460;39.612;8.822;2023-05-19T06:45:49;3.92;;;1.45;;
66603;SDS011;53460;39.612;8.822;2023-05-19T06:48:14;8.10;;;1.23;;
66603;SDS011;53460;39.612;8.822;2023-05-19T06:50:40;4.40;;;1.20;;
66603;SDS011;53460;39.612;8.822;2023-05-19T06:53:05;1.55;;;0.93;;
66603;SDS011;53460;39.612;8.822;2023-05-19T06:55:31;2.30;;;1.00;;
66603;SDS011;53460;39.612;8.822;2023-05-19T06:57:56;4.85;;;0.90;;
66603;SDS011;53460;39.612;8.822;2023-05-19T07:00:22;1.35;;;0.90;;
66603;SDS011;53460;39.612;8.822;2023-05-19T07:02:49;1.73;;;1.10;;
66603;SDS011;53460;39.612;8.822;2023-05-19T07:05:14;2.83;;;1.00;;
66603;SDS011;53460;39.612;8.822;2023-05-19T07:07:43;1.17;;;1.08;;
66603;SDS011;53460;39.612;8.822;2023-05-19T07:10:12;0.70;;;0.70;;
66603;SDS011;53460;39.612;8.822;2023-05-19T07:12:38;1.30;;;0.88;;
66603;SDS011;53460;39.612;8.822;2023-05-19T07:15:04;1.75;;;1.00;;
66603;SDS011;53460;39.612;8.822;2023-05-19T07:17:30;6.70;;;0.93;;
66603;SDS011;53460;39.612;8.822;2023-05-19T07:19:57;6.32;;;1.20;;
66603;SDS011;53460;39.612;8.822;2023-05-19T07:22:22;3.30;;;1.33;;
66603;SDS011;53460;39.612;8.822;2023-05-19T07:24:48;2.05;;;1.40;;
66603;SDS011;53460;39.612;8.822;2023-05-19T07:27:15;2.38;;;1.15;;
66603;SDS011;53460;39.612;8.822;2023-05-19T07:29:41;2.00;;;1.00;;
66603;SDS011;53460;39.612;8.822;2023-05-19T07:32:06;3.58;;;1.23;;
66603;SDS011;53460;39.612;8.822;2023-05-19T07:34:31;3.40;;;1.40;;
66603;SDS011;53460;39.612;8.822;2023-05-19T07:36:57;1.73;;;0.93;;
66603;SDS011;53460;39.612;8.822;2023-05-19T07:39:22;2.47;;;1.13;;
66603;SDS011;53460;39.612;8.822;2023-05-19T07:41:50;2.60;;;1.10;;
66603;SDS011;53460;39.612;8.822;2023-05-19T07:44:20;3.40;;;1.42;;
66603;SDS011;53460;39.612;8.822;2023-05-19T07:46:45;13.43;;;1.63;;
66603;SDS011;53460;39.612;8.822;2023-05-19T07:49:11;5.13;;;1.25;;
66603;SDS011;53460;39.612;8.822;2023-05-19T07:51:36;4.13;;;1.02;;
66603;SDS011;53460;39.612;8.822;2023-05-19T07:54:03;4.00;;;1.40;;
66603;SDS011;53460;39.612;8.822;2023-05-19T07:56:28;2.72;;;1.40;;
66603;SDS011;53460;39.612;8.822;2023-05-19T07:58:54;5.45;;;1.25;;
66603;SDS011;53460;39.612;8.822;2023-05-19T08:01:20;3.78;;;1.20;;
66603;SDS011;53460;39.612;8.822;2023-05-19T08:03:45;2.72;;;1.52;;
66603;SDS011;53460;39.612;8.822;2023-05-19T08:06:10;2.03;;;1.33;;
66603;SDS011;53460;39.612;8.822;2023-05-19T08:08:36;2.15;;;1.38;;
66603;SDS011;53460;39.612;8.822;2023-05-19T08:11:02;2.85;;;1.23;;
66603;SDS011;53460;39.612;8.822;2023-05-19T08:13:28;3.63;;;1.38;;
66603;SDS011;53460;39.612;8.822;2023-05-19T08:15:53;2.28;;;1.25;;
66603;SDS011;53460;39.612;8.822;2023-05-19T08:18:23;1.50;;;1.25;;
66603;SDS011;53460;39.612;8.822;2023-05-19T08:20:49;2.88;;;1.35;;
66603;SDS011;53460;39.612;8.822;2023-05-19T08:23:15;2.58;;;1.00;;
66603;SDS011;53460;39.612;8.822;2023-05-19T08:25:41;1.92;;;1.40;;
66603;SDS011;53460;39.612;8.822;2023-05-19T08:28:07;4.57;;;1.20;;
66603;SDS011;53460;39.612;8.822;2023-05-19T08:30:32;3.95;;;1.67;;
66603;SDS011;53460;39.612;8.822;2023-05-19T08:32:58;3.10;;;1.25;;
66603;SDS011;53460;39.612;8.822;2023-05-19T08:35:23;3.88;;;1.10;;
66603;SDS011;53460;39.612;8.822;2023-05-19T08:37:49;3.42;;;1.45;;
66603;SDS011;53460;39.612;8.822;2023-05-19T08:40:17;3.78;;;1.35;;
66603;SDS011;53460;39.612;8.822;2023-05-19T08:42:46;1.70;;;1.00;;
66603;SDS011;53460;39.612;8.822;2023-05-19T08:45:11;5.22;;;1.50;;
66603;SDS011;53460;39.612;8.822;2023-05-19T08:47:37;5.00;;;1.60;;
66603;SDS011;53460;39.612;8.822;2023-05-19T08:50:04;3.92;;;1.60;;
66603;SDS011;53460;39.612;8.822;2023-05-19T08:55:08;2.55;;;1.13;;
66603;SDS011;53460;39.612;8.822;2023-05-19T08:57:35;2.05;;;1.50;;
66603;SDS011;53460;39.612;8.822;2023-05-19T09:00:02;4.45;;;1.50;;
66603;SDS011;53460;39.612;8.822;2023-05-19T09:02:33;6.75;;;3.60;;
66603;SDS011;53460;39.612;8.822;2023-05-19T09:04:59;3.17;;;1.67;;
66603;SDS011;53460;39.612;8.822;2023-05-19T09:07:25;2.50;;;1.60;;
66603;SDS011;53460;39.612;8.822;2023-05-19T09:09:51;6.68;;;1.40;;
66603;SDS011;53460;39.612;8.822;2023-05-19T09:12:16;4.10;;;1.52;;
66603;SDS011;53460;39.612;8.822;2023-05-19T09:14:42;3.05;;;1.38;;
66603;SDS011;53460;39.612;8.822;2023-05-19T09:17:08;4.47;;;1.63;;
66603;SDS011;53460;39.612;8.822;2023-05-19T09:19:33;7.47;;;2.10;;
66603;SDS011;53460;39.612;8.822;2023-05-19T09:21:59;6.32;;;1.08;;
66603;SDS011;53460;39.612;8.822;2023-05-19T09:24:25;2.95;;;1.17;;
66603;SDS011;53460;39.612;8.822;2023-05-19T09:26:52;1.60;;;1.17;;
66603;SDS011;53460;39.612;8.822;2023-05-19T09:29:18;2.55;;;1.05;;
66603;SDS011;53460;39.612;8.822;2023-05-19T09:31:48;5.72;;;2.05;;
66603;SDS011;53460;39.612;8.822;2023-05-19T09:34:14;3.72;;;1.63;;
66603;SDS011;53460;39.612;8.822;2023-05-19T09:36:40;2.88;;;2.10;;
66603;SDS011;53460;39.612;8.822;2023-05-19T09:39:12;4.40;;;1.45;;
66603;SDS011;53460;39.612;8.822;2023-05-19T09:41:39;4.22;;;1.60;;
66603;SDS011;53460;39.612;8.822;2023-05-19T09:44:04;4.55;;;1.35;;
66603;SDS011;53460;39.612;8.822;2023-05-19T09:46:31;4.15;;;1.58;;
66603;SDS011;53460;39.612;8.822;2023-05-19T09:48:57;3.88;;;1.98;;
66603;SDS011;53460;39.612;8.822;2023-05-19T09:51:23;2.65;;;1.30;;
66603;SDS011;53460;39.612;8.822;2023-05-19T09:53:49;3.97;;;1.48;;
66603;SDS011;53460;39.612;8.822;2023-05-19T09:56:14;2.10;;;1.10;;
66603;SDS011;53460;39.612;8.822;2023-05-19T09:58:40;4.68;;;1.40;;
66603;SDS011;53460;39.612;8.822;2023-05-19T10:01:06;2.90;;;1.02;;
66603;SDS011;53460;39.612;8.822;2023-05-19T10:03:32;2.28;;;1.30;;
66603;SDS011;53460;39.612;8.822;2023-05-19T10:05:59;1.98;;;1.10;;
66603;SDS011;53460;39.612;8.822;2023-05-19T10:08:25;2.13;;;1.38;;
66603;SDS011;53460;39.612;8.822;2023-05-19T10:10:51;2.25;;;1.10;;
66603;SDS011;53460;39.612;8.822;2023-05-19T10:13:16;8.38;;;3.70;;
66603;SDS011;53460;39.612;8.822;2023-05-19T10:15:42;3.50;;;1.90;;
66603;SDS011;53460;39.612;8.822;2023-05-19T10:18:08;3.63;;;1.20;;
66603;SDS011;53460;39.612;8.822;2023-05-19T10:20:34;3.80;;;1.23;;
66603;SDS011;53460;39.612;8.822;2023-05-19T10:23:00;3.05;;;1.30;;
66603;SDS011;53460;39.612;8.822;2023-05-19T10:25:27;4.13;;;1.63;;
66603;SDS011;53460;39.612;8.822;2023-05-19T10:27:55;3.33;;;1.13;;
66603;SDS011;53460;39.612;8.822;2023-05-19T10:30:24;2.22;;;1.30;;
66603;SDS011;53460;39.612;8.822;2023-05-19T10:32:51;3.80;;;1.63;;
66603;SDS011;53460;39.612;8.822;2023-05-19T10:40:42;4.07;;;1.60;;
66603;SDS011;53460;39.612;8.822;2023-05-19T10:45:47;4.68;;;2.03;;
66603;SDS011;53460;39.612;8.822;2023-05-19T10:48:14;4.15;;;1.67;;
66603;SDS011;53460;39.612;8.822;2023-05-19T10:50:42;4.03;;;1.90;;
66603;SDS011;53460;39.612;8.822;2023-05-19T10:53:12;4.80;;;2.20;;
66603;SDS011;53460;39.612;8.822;2023-05-19T10:55:45;4.30;;;1.70;;
66603;SDS011;53460;39.612;8.822;2023-05-19T10:58:11;2.40;;;1.60;;
66603;SDS011;53460;39.612;8.822;2023-05-19T11:00:38;2.72;;;1.40;;
66603;SDS011;53460;39.612;8.822;2023-05-19T11:03:16;4.05;;;2.35;;
66603;SDS011;53460;39.612;8.822;2023-05-19T11:05:47;2.70;;;1.25;;
66603;SDS011;53460;39.612;8.822;2023-05-19T11:08:15;3.95;;;1.70;;
66603;SDS011;53460;39.612;8.822;2023-05-19T11:10:44;2.60;;;2.10;;
66603;SDS011;53460;39.612;8.822;2023-05-19T11:13:17;3.75;;;1.73;;
66603;SDS011;53460;39.612;8.822;2023-05-19T11:15:43;4.88;;;1.45;;
66603;SDS011;53460;39.612;8.822;2023-05-19T11:18:09;5.80;;;2.00;;
66603;SDS011;53460;39.612;8.822;2023-05-19T11:20:39;4.03;;;1.65;;
66603;SDS011;53460;39.612;8.822;2023-05-19T11:23:06;3.42;;;1.88;;
66603;SDS011;53460;39.612;8.822;2023-05-19T11:25:47;3.47;;;1.67;;
66603;SDS011;53460;39.612;8.822;2023-05-19T11:28:22;5.45;;;2.42;;
66603;SDS011;53460;39.612;8.822;2023-05-19T11:30:53;4.20;;;1.70;;
66603;SDS011;53460;39.612;8.822;2023-05-19T11:33:19;3.17;;;1.90;;
66603;SDS011;53460;39.612;8.822;2023-05-19T11:35:46;5.68;;;1.65;;
66603;SDS011;53460;39.612;8.822;2023-05-19T11:38:11;4.82;;;1.73;;
66603;SDS011;53460;39.612;8.822;2023-05-19T11:40:38;4.40;;;1.45;;
66603;SDS011;53460;39.612;8.822;2023-05-19T11:43:03;5.72;;;2.47;;
66603;SDS011;53460;39.612;8.822;2023-05-19T11:45:30;4.43;;;2.00;;
66603;SDS011;53460;39.612;8.822;2023-05-19T11:47:57;6.25;;;2.35;;
66603;SDS011;53460;39.612;8.822;2023-05-19T11:50:23;7.47;;;3.55;;
66603;SDS011;53460;39.612;8.822;2023-05-19T11:52:49;8.65;;;2.50;;
66603;SDS011;53460;39.612;8.822;2023-05-19T11:55:18;6.43;;;2.40;;
66603;SDS011;53460;39.612;8.822;2023-05-19T11:58:16;5.05;;;2.05;;
66603;SDS011;53460;39.612;8.822;2023-05-19T12:00:36;3.20;;;1.50;;
66603;SDS011;53460;39.612;8.822;2023-05-19T12:03:02;5.45;;;2.10;;
66603;SDS011;53460;39.612;8.822;2023-05-19T12:05:28;5.75;;;2.00;;
66603;SDS011;53460;39.612;8.822;2023-05-19T12:07:53;8.52;;;3.67;;
66603;SDS011;53460;39.612;8.822;2023-05-19T12:12:47;5.20;;;1.80;;
66603;SDS011;53460;39.612;8.822;2023-05-19T12:15:17;8.30;;;1.85;;
66603;SDS011;53460;39.612;8.822;2023-05-19T12:17:43;5.57;;;2.10;;
66603;SDS011;53460;39.612;8.822;2023-05-19T12:20:11;4.15;;;1.95;;
66603;SDS011;53460;39.612;8.822;2023-05-19T12:22:40;6.57;;;2.33;;
66603;SDS011;53460;39.612;8.822;2023-05-19T12:25:05;4.68;;;1.92;;
66603;SDS011;53460;39.612;8.822;2023-05-19T12:27:33;3.03;;;2.38;;
66603;SDS011;53460;39.612;8.822;2023-05-19T12:29:59;3.22;;;1.60;;
66603;SDS011;53460;39.612;8.822;2023-05-19T12:32:25;4.43;;;1.73;;
66603;SDS011;53460;39.612;8.822;2023-05-19T12:34:51;5.20;;;1.83;;
66603;SDS011;53460;39.612;8.822;2023-05-19T12:37:17;5.90;;;1.80;;
66603;SDS011;53460;39.612;8.822;2023-05-19T12:39:43;1.98;;;1.23;;
66603;SDS011;53460;39.612;8.822;2023-05-19T12:42:09;7.03;;;2.03;;
66603;SDS011;53460;39.612;8.822;2023-05-19T12:44:36;5.80;;;1.70;;
66603;SDS011;53460;39.612;8.822;2023-05-19T12:47:03;4.03;;;1.60;;
66603;SDS011;53460;39.612;8.822;2023-05-19T12:49:33;3.50;;;1.80;;
66603;SDS011;53460;39.612;8.822;2023-05-19T12:52:02;4.68;;;1.58;;
66603;SDS011;53460;39.612;8.822;2023-05-19T12:54:31;4.57;;;1.77;;
66603;SDS011;53460;39.612;8.822;2023-05-19T12:56:57;4.07;;;1.80;;
66603;SDS011;53460;39.612;8.822;2023-05-19T12:59:23;2.30;;;1.20;;
66603;SDS011;53460;39.612;8.822;2023-05-19T13:01:58;3.03;;;1.35;;
66603;SDS011;53460;39.612;8.822;2023-05-19T13:04:26;4.85;;;1.50;;
66603;SDS011;53460;39.612;8.822;2023-05-19T13:06:52;4.10;;;1.50;;
66603;SDS011;53460;39.612;8.822;2023-05-19T13:09:20;6.57;;;1.80;;
66603;SDS011;53460;39.612;8.822;2023-05-19T13:11:46;2.80;;;1.65;;
66603;SDS011;53460;39.612;8.822;2023-05-19T13:14:18;4.13;;;1.97;;
66603;SDS011;53460;39.612;8.822;2023-05-19T13:16:45;4.22;;;2.00;;
66603;SDS011;53460;39.612;8.822;2023-05-19T13:19:16;5.38;;;1.95;;
66603;SDS011;53460;39.612;8.822;2023-05-19T13:21:43;4.95;;;2.60;;
66603;SDS011;53460;39.612;8.822;2023-05-19T13:24:10;5.53;;;2.50;;
66603;SDS011;53460;39.612;8.822;2023-05-19T13:26:35;4.65;;;2.95;;
66603;SDS011;53460;39.612;8.822;2023-05-19T13:29:01;6.78;;;2.28;;
66603;SDS011;53460;39.612;8.822;2023-05-19T13:31:27;4.35;;;2.10;;
66603;SDS011;53460;39.612;8.822;2023-05-19T13:33:52;4.40;;;2.38;;
66603;SDS011;53460;39.612;8.822;2023-05-19T13:36:18;3.95;;;2.13;;
66603;SDS011;53460;39.612;8.822;2023-05-19T13:38:43;6.75;;;2.47;;
66603;SDS011;53460;39.612;8.822;2023-05-19T13:41:08;5.55;;;2.45;;
66603;SDS011;53460;39.612;8.822;2023-05-19T13:43:34;2.35;;;1.75;;
66603;SDS011;53460;39.612;8.822;2023-05-19T13:45:59;3.85;;;2.20;;
66603;SDS011;53460;39.612;8.822;2023-05-19T13:48:25;3.30;;;1.95;;
66603;SDS011;53460;39.612;8.822;2023-05-19T13:50:50;3.50;;;2.10;;
66603;SDS011;53460;39.612;8.822;2023-05-19T13:53:20;4.40;;;2.15;;
66603;SDS011;53460;39.612;8.822;2023-05-19T13:55:45;4.43;;;2.55;;
66603;SDS011;53460;39.612;8.822;2023-05-19T13:58:11;3.75;;;1.80;;
66603;SDS011;53460;39.612;8.822;2023-05-19T14:00:39;3.42;;;1.67;;
66603;SDS011;53460;39.612;8.822;2023-05-19T14:03:05;2.45;;;1.60;;
66603;SDS011;53460;39.612;8.822;2023-05-19T14:05:31;3.47;;;1.80;;
66603;SDS011;53460;39.612;8.822;2023-05-19T14:07:56;3.33;;;1.70;;
66603;SDS011;53460;39.612;8.822;2023-05-19T14:10:23;3.63;;;1.85;;
66603;SDS011;53460;39.612;8.822;2023-05-19T14:12:50;4.30;;;2.00;;
66603;SDS011;53460;39.612;8.822;2023-05-19T14:15:16;4.70;;;2.15;;
66603;SDS011;53460;39.612;8.822;2023-05-19T14:17:42;3.03;;;1.80;;
66603;SDS011;53460;39.612;8.822;2023-05-19T14:20:07;3.55;;;1.60;;
66603;SDS011;53460;39.612;8.822;2023-05-19T14:22:33;6.10;;;2.05;;
66603;SDS011;53460;39.612;8.822;2023-05-19T14:24:59;3.90;;;1.73;;
66603;SDS011;53460;39.612;8.822;2023-05-19T14:27:24;2.85;;;1.60;;
66603;SDS011;53460;39.612;8.822;2023-05-19T14:29:50;3.92;;;2.08;;
66603;SDS011;53460;39.612;8.822;2023-05-19T14:32:15;3.05;;;1.63;;
66603;SDS011;53460;39.612;8.822;2023-05-19T14:34:41;4.00;;;1.77;;
66603;SDS011;53460;39.612;8.822;2023-05-19T14:37:06;5.10;;;1.92;;
66603;SDS011;53460;39.612;8.822;2023-05-19T14:39:32;4.57;;;1.95;;
66603;SDS011;53460;39.612;8.822;2023-05-19T14:41:57;3.38;;;1.77;;
66603;SDS011;53460;39.612;8.822;2023-05-19T14:44:25;3.53;;;2.00;;
66603;SDS011;53460;39.612;8.822;2023-05-19T14:46:53;4.30;;;1.92;;
66603;SDS011;53460;39.612;8.822;2023-05-19T14:49:20;2.97;;;1.75;;
66603;SDS011;53460;39.612;8.822;2023-05-19T14:51:46;3.63;;;2.28;;
66603;SDS011;53460;39.612;8.822;2023-05-19T14:54:13;4.55;;;1.88;;
66603;SDS011;53460;39.612;8.822;2023-05-19T14:56:42;4.65;;;2.08;;
66603;SDS011;53460;39.612;8.822;2023-05-19T14:59:08;4.53;;;2.13;;
66603;SDS011;53460;39.612;8.822;2023-05-19T15:01:33;4.53;;;2.58;;
66603;SDS011;53460;39.612;8.822;2023-05-19T15:03:59;3.45;;;1.83;;
66603;SDS011;53460;39.612;8.822;2023-05-19T15:06:26;3.38;;;2.00;;
66603;SDS011;53460;39.612;8.822;2023-05-19T15:08:51;3.17;;;2.13;;
66603;SDS011;53460;39.612;8.822;2023-05-19T15:11:17;2.78;;;1.85;;
66603;SDS011;53460;39.612;8.822;2023-05-19T15:13:43;3.35;;;1.88;;
66603;SDS011;53460;39.612;8.822;2023-05-19T15:16:08;3.75;;;1.80;;